Time;durP1;ratioP1;P1;durP2;ratioP2;P2;SDS_P1;SDS_P2;PMS_P1;PMS_P2;Temp;Humidity;BMP_temperature;BMP_pressure;BME280_temperature;BME280_humidity;BME280_pressure;Samples;Min_cycle;Max_cycle;Signal;HPM_P1;HPM_P2
2023/03/22 00:01:30;;;;;;;8.03;5.60;;;11.20;99.90;;;;;;7935683;28;20188;-88
2023/03/22 00:05:16;;;;;;;10.07;5.70;;;11.00;99.90;;;;;;7924056;28;20209;-89
2023/03/22 00:09:01;;;;;;;10.87;5.63;;;11.10;99.90;;;;;;7905049;28;20189;-88
2023/03/22 00:12:47;;;;;;;7.67;4.50;;;11.10;99.90;;;;;;7919078;28;20203;-88
2023/03/22 00:16:32;;;;;;;8.43;5.77;;;11.10;99.90;;;;;;7908629;28;20203;-88
2023/03/22 00:20:19;;;;;;;9.50;5.63;;;11.10;99.90;;;;;;7907121;28;20284;-88
2023/03/22 00:24:05;;;;;;;10.07;5.53;;;11.10;99.90;;;;;;7912574;28;20209;-88
2023/03/22 00:27:51;;;;;;;6.83;4.10;;;11.10;99.90;;;;;;7907720;28;20184;-88
2023/03/22 00:31:36;;;;;;;6.47;4.73;;;11.10;99.90;;;;;;7904256;28;20201;-88
2023/03/22 00:35:22;;;;;;;7.43;4.87;;;11.10;99.90;;;;;;7910251;28;20222;-89
2023/03/22 00:39:08;;;;;;;6.00;4.63;;;11.10;99.90;;;;;;7918921;28;20611;-88
2023/03/22 00:42:53;;;;;;;6.53;4.67;;;11.10;99.90;;;;;;7919248;28;20211;-88
2023/03/22 00:46:39;;;;;;;6.93;4.33;;;11.20;99.90;;;;;;7913052;28;20581;-88
2023/03/22 00:50:24;;;;;;;5.50;4.20;;;11.10;99.90;;;;;;7926877;28;20212;-89
2023/03/22 00:54:10;;;;;;;8.37;5.30;;;11.10;99.90;;;;;;7905899;28;20322;-87
2023/03/22 00:57:56;;;;;;;9.57;4.83;;;11.10;99.90;;;;;;7913658;28;20177;-88
2023/03/22 01:01:42;;;;;;;7.50;4.60;;;11.10;99.90;;;;;;7925602;28;20181;-88
2023/03/22 01:05:32;;;;;;;5.63;4.30;;;11.10;99.90;;;;;;7906963;28;20201;-88
2023/03/22 01:09:22;;;;;;;9.10;5.07;;;11.10;99.90;;;;;;7918196;28;20216;-88
2023/03/22 01:13:10;;;;;;;8.37;4.80;;;11.00;99.90;;;;;;7910350;28;20212;-88
2023/03/22 01:16:56;;;;;;;7.73;4.50;;;11.00;99.90;;;;;;7913868;28;20199;-87
2023/03/22 01:20:42;;;;;;;6.33;3.77;;;11.00;99.90;;;;;;7914722;28;20439;-87
2023/03/22 01:24:27;;;;;;;6.63;4.33;;;11.00;99.90;;;;;;7904729;28;20209;-88
2023/03/22 01:28:13;;;;;;;6.57;4.60;;;11.00;99.90;;;;;;7899401;28;20196;-88
2023/03/22 01:31:59;;;;;;;8.67;4.83;;;11.00;99.90;;;;;;7911041;28;20214;-88
2023/03/22 01:35:44;;;;;;;8.37;4.87;;;11.00;99.90;;;;;;7915954;28;20192;-88
2023/03/22 01:39:31;;;;;;;10.03;5.23;;;11.00;99.90;;;;;;7904858;28;20207;-88
2023/03/22 01:43:17;;;;;;;6.60;4.47;;;10.90;99.90;;;;;;7905866;28;20208;-88
2023/03/22 01:47:02;;;;;;;9.07;4.70;;;10.90;99.90;;;;;;7911331;28;20196;-88
2023/03/22 01:51:03;;;;;;;6.77;4.80;;;10.90;99.90;;;;;;7918713;28;20204;-89
2023/03/22 01:54:52;;;;;;;17.70;5.23;;;10.90;99.90;;;;;;7916918;28;20200;-88
2023/03/22 01:58:39;;;;;;;10.33;4.87;;;10.80;99.90;;;;;;7904631;28;20541;-88
2023/03/22 02:02:29;;;;;;;7.90;4.17;;;10.70;99.90;;;;;;7928211;28;20615;-90
2023/03/22 02:06:16;;;;;;;7.73;4.07;;;10.70;99.90;;;;;;7912264;28;20216;-88
2023/03/22 02:10:02;;;;;;;10.53;4.73;;;10.70;99.90;;;;;;7906214;28;20200;-88
2023/03/22 02:14:04;;;;;;;7.03;4.03;;;10.70;99.90;;;;;;7928523;28;20228;-88
2023/03/22 02:18:10;;;;;;;7.57;4.40;;;10.70;99.90;;;;;;7933047;28;20184;-88
2023/03/22 02:22:48;;;;;;;8.07;4.03;;;10.70;99.90;;;;;;7929467;28;20208;-87
2023/03/22 02:27:19;;;;;;;5.40;3.87;;;10.60;99.90;;;;;;7838051;28;20209;-88
2023/03/22 02:31:13;;;;;;;6.63;4.10;;;10.60;99.90;;;;;;7735550;28;20231;-88
2023/03/22 02:35:07;;;;;;;5.40;4.07;;;10.50;99.90;;;;;;7729832;28;20204;-87
2023/03/22 02:39:15;;;;;;;5.73;4.13;;;10.50;99.90;;;;;;7743823;28;20183;-87
2023/03/22 02:43:33;;;;;;;6.73;4.10;;;10.50;99.90;;;;;;7747942;28;20197;-88
2023/03/22 02:47:34;;;;;;;6.20;4.40;;;10.40;99.90;;;;;;7750426;28;20234;-88
2023/03/22 02:51:35;;;;;;;7.60;4.47;;;10.20;99.90;;;;;;7761742;28;20275;-88
2023/03/22 02:55:43;;;;;;;6.87;4.47;;;10.10;99.90;;;;;;7732096;28;20218;-88
2023/03/22 02:59:33;;;;;;;6.30;3.70;;;10.10;99.90;;;;;;7742611;28;20313;-88
2023/03/22 03:03:24;;;;;;;8.23;4.50;;;10.00;99.90;;;;;;7791707;28;20210;-88
2023/03/22 03:07:13;;;;;;;6.70;5.00;;;10.00;99.90;;;;;;7873360;28;20233;-89
2023/03/22 03:10:58;;;;;;;6.97;3.93;;;9.90;99.90;;;;;;7913998;28;20579;-88
2023/03/22 03:14:44;;;;;;;7.33;4.53;;;10.00;99.90;;;;;;7931498;28;20205;-88
2023/03/22 03:18:36;;;;;;;6.43;4.30;;;10.00;99.90;;;;;;7904495;28;20192;-88
2023/03/22 03:22:30;;;;;;;5.77;3.77;;;10.10;99.90;;;;;;7913225;28;20188;-88
2023/03/22 03:26:42;;;;;;;6.97;3.77;;;10.10;99.90;;;;;;7926178;28;20211;-88
2023/03/22 03:30:39;;;;;;;8.47;4.23;;;10.20;99.90;;;;;;7896323;28;20236;-87
2023/03/22 03:34:41;;;;;;;6.43;3.53;;;10.20;99.90;;;;;;7903711;28;20200;-88
2023/03/22 03:38:30;;;;;;;6.90;3.70;;;10.20;99.90;;;;;;7898093;28;20224;-88
2023/03/22 03:42:17;;;;;;;7.33;4.50;;;10.20;99.90;;;;;;7929982;28;20189;-88
2023/03/22 03:46:03;;;;;;;5.13;3.47;;;10.10;99.90;;;;;;7906090;28;20408;-88
2023/03/22 03:49:49;;;;;;;4.73;3.23;;;10.00;99.90;;;;;;7922141;28;20224;-88
2023/03/22 03:53:35;;;;;;;5.40;3.50;;;10.00;99.90;;;;;;7919299;28;20197;-88
2023/03/22 03:57:21;;;;;;;5.37;3.40;;;9.90;99.90;;;;;;7908130;28;20177;-88
2023/03/22 04:01:06;;;;;;;5.73;3.20;;;9.90;99.90;;;;;;7921952;28;20215;-88
2023/03/22 04:04:52;;;;;;;10.47;3.40;;;9.80;99.90;;;;;;7938728;28;20200;-88
2023/03/22 04:08:38;;;;;;;5.20;3.40;;;9.80;99.90;;;;;;7917366;28;20181;-88
2023/03/22 04:12:23;;;;;;;4.67;3.30;;;9.90;99.90;;;;;;7917222;28;20238;-89
2023/03/22 04:16:09;;;;;;;5.67;3.37;;;9.70;99.90;;;;;;7920094;28;20725;-87
2023/03/22 04:19:55;;;;;;;6.27;3.60;;;9.70;99.90;;;;;;7916800;28;20328;-88
2023/03/22 04:23:41;;;;;;;5.83;3.97;;;9.60;99.90;;;;;;7909573;28;20209;-88
2023/03/22 04:27:26;;;;;;;5.03;3.57;;;9.40;99.90;;;;;;7915082;28;20424;-88
2023/03/22 04:31:12;;;;;;;5.57;3.70;;;9.40;99.90;;;;;;7911611;28;20203;-88
2023/03/22 04:34:58;;;;;;;7.70;3.83;;;9.30;99.90;;;;;;7917603;28;20207;-88
2023/03/22 04:38:43;;;;;;;5.63;3.80;;;9.30;99.90;;;;;;7939509;28;20180;-87
2023/03/22 04:42:29;;;;;;;6.63;4.10;;;9.30;99.90;;;;;;7939305;28;20211;-88
2023/03/22 04:46:15;;;;;;;10.07;4.50;;;9.20;99.90;;;;;;7902298;28;20204;-89
2023/03/22 04:50:01;;;;;;;8.13;4.93;;;9.20;99.90;;;;;;7925862;28;20264;-87
2023/03/22 04:53:46;;;;;;;7.13;4.60;;;9.20;99.90;;;;;;7898944;28;20209;-88
2023/03/22 04:57:34;;;;;;;10.07;4.70;;;9.10;99.90;;;;;;7906783;28;20211;-88
2023/03/22 05:01:19;;;;;;;7.07;4.40;;;9.10;99.90;;;;;;7918266;28;20184;-88
2023/03/22 05:05:06;;;;;;;10.93;4.77;;;9.20;99.90;;;;;;7915063;28;20227;-87
2023/03/22 05:08:51;;;;;;;6.80;4.80;;;9.10;99.90;;;;;;7911738;28;20466;-89
2023/03/22 05:12:37;;;;;;;10.77;4.80;;;9.10;99.90;;;;;;7907429;28;20209;-88
2023/03/22 05:16:23;;;;;;;7.33;4.80;;;9.10;99.90;;;;;;7907422;28;20890;-89
2023/03/22 05:20:10;;;;;;;5.77;4.37;;;9.10;99.90;;;;;;7908773;28;20238;-88
2023/03/22 05:23:57;;;;;;;9.60;5.00;;;9.00;99.90;;;;;;7898891;28;20201;-88
2023/03/22 05:27:42;;;;;;;8.00;4.77;;;9.00;99.90;;;;;;7907297;28;20169;-89
2023/03/22 05:31:29;;;;;;;8.47;5.00;;;8.90;99.90;;;;;;7927583;28;20217;-88
2023/03/22 05:35:14;;;;;;;6.47;4.37;;;9.00;99.90;;;;;;7909803;28;20365;-88
2023/03/22 05:39:01;;;;;;;10.00;5.87;;;9.10;99.90;;;;;;7924219;28;20198;-88
2023/03/22 05:42:46;;;;;;;11.33;5.33;;;9.00;99.90;;;;;;7897578;28;20188;-87
2023/03/22 05:46:32;;;;;;;13.90;6.23;;;9.00;99.90;;;;;;7901630;28;20209;-88
2023/03/22 05:50:21;;;;;;;7.00;5.03;;;9.00;99.90;;;;;;7920266;28;20200;-88
2023/03/22 05:54:08;;;;;;;8.43;5.07;;;8.90;99.90;;;;;;7919751;28;20273;-88
2023/03/22 05:57:55;;;;;;;6.93;4.80;;;9.00;99.90;;;;;;7908909;28;20187;-88
2023/03/22 06:01:40;;;;;;;7.93;4.83;;;9.00;99.90;;;;;;7906297;28;20209;-88
2023/03/22 06:05:30;;;;;;;8.40;5.20;;;9.10;99.90;;;;;;7905021;28;20207;-88
2023/03/22 06:09:16;;;;;;;7.87;5.27;;;9.10;99.90;;;;;;7913346;28;20302;-88
2023/03/22 06:13:01;;;;;;;9.27;5.20;;;9.10;99.90;;;;;;7934985;28;20200;-88
2023/03/22 06:16:47;;;;;;;8.93;5.27;;;9.20;99.90;;;;;;7932893;28;20583;-88
2023/03/22 06:20:34;;;;;;;7.87;5.60;;;9.30;99.90;;;;;;7882563;28;20307;-89
2023/03/22 06:24:20;;;;;;;9.93;5.83;;;9.30;99.90;;;;;;7907078;28;20196;-87
2023/03/22 06:28:05;;;;;;;7.83;5.50;;;9.40;99.90;;;;;;7914609;28;20219;-87
2023/03/22 06:31:51;;;;;;;8.20;5.37;;;9.50;99.90;;;;;;7933004;28;20196;-87
2023/03/22 06:35:37;;;;;;;9.17;5.73;;;9.50;99.90;;;;;;7925461;28;20201;-87
2023/03/22 06:39:23;;;;;;;10.53;5.93;;;9.50;99.90;;;;;;7893519;28;20180;-88
2023/03/22 06:43:08;;;;;;;11.13;6.73;;;9.50;99.90;;;;;;7889099;28;20177;-88
2023/03/22 06:46:54;;;;;;;10.83;6.20;;;9.60;99.90;;;;;;7926503;28;20185;-88
2023/03/22 06:50:40;;;;;;;10.10;6.00;;;9.70;99.90;;;;;;7911839;28;20211;-88
2023/03/22 06:54:26;;;;;;;7.87;5.40;;;9.70;99.90;;;;;;7930770;28;20200;-87
2023/03/22 06:58:12;;;;;;;9.83;5.60;;;9.80;99.90;;;;;;7902711;28;20535;-88
2023/03/22 07:01:57;;;;;;;9.43;5.70;;;9.90;99.90;;;;;;7929026;28;20191;-88
2023/03/22 07:05:43;;;;;;;13.57;6.37;;;10.00;99.90;;;;;;7893183;28;20247;-88
2023/03/22 07:09:29;;;;;;;12.10;6.30;;;10.00;99.90;;;;;;7931898;28;20203;-88
2023/03/22 07:13:15;;;;;;;9.60;5.77;;;10.00;99.90;;;;;;7911767;28;20239;-88
2023/03/22 07:17:00;;;;;;;10.10;6.40;;;10.10;99.90;;;;;;7913212;28;20172;-88
2023/03/22 07:20:46;;;;;;;17.43;6.83;;;10.10;99.90;;;;;;7929714;28;20229;-87
2023/03/22 07:24:32;;;;;;;10.73;6.93;;;10.10;99.90;;;;;;7926845;28;20559;-87
2023/03/22 07:28:17;;;;;;;10.93;6.00;;;10.20;99.90;;;;;;7896101;28;20222;-88
2023/03/22 07:32:03;;;;;;;9.03;6.63;;;10.30;99.90;;;;;;7933839;28;20689;-87
2023/03/22 07:35:49;;;;;;;10.97;6.63;;;10.30;99.90;;;;;;7919021;28;20275;-88
2023/03/22 07:39:34;;;;;;;9.93;6.40;;;10.40;99.90;;;;;;7905474;28;20643;-88
2023/03/22 07:43:21;;;;;;;11.67;6.33;;;10.40;99.90;;;;;;7904411;28;20681;-88
2023/03/22 07:47:07;;;;;;;10.87;6.60;;;10.50;99.90;;;;;;7932031;28;20268;-88
2023/03/22 07:50:56;;;;;;;12.23;6.57;;;10.50;99.90;;;;;;7894262;28;20272;-88
2023/03/22 07:54:41;;;;;;;9.77;6.33;;;10.60;99.90;;;;;;7909270;28;20670;-88
2023/03/22 07:58:27;;;;;;;9.60;6.20;;;10.70;99.90;;;;;;7926389;28;20188;-88
2023/03/22 08:02:13;;;;;;;9.10;5.87;;;10.80;99.90;;;;;;7906611;28;20201;-89
2023/03/22 08:06:01;;;;;;;10.03;6.00;;;11.00;99.90;;;;;;7891257;28;20234;-89
2023/03/22 08:09:48;;;;;;;10.43;6.63;;;11.10;99.90;;;;;;7915467;28;20203;-88
2023/03/22 08:13:34;;;;;;;8.33;6.43;;;11.30;99.90;;;;;;7933324;28;20206;-88
2023/03/22 08:17:20;;;;;;;9.83;6.63;;;11.40;99.90;;;;;;7928694;28;20176;-88
2023/03/22 08:21:06;;;;;;;11.50;6.50;;;11.50;99.90;;;;;;7897590;28;20626;-88
2023/03/22 08:24:51;;;;;;;11.90;6.50;;;11.50;99.90;;;;;;7929101;28;20201;-88
2023/03/22 08:28:37;;;;;;;7.23;5.63;;;11.60;99.90;;;;;;7913385;28;20193;-87
2023/03/22 08:32:23;;;;;;;9.23;5.70;;;11.70;99.90;;;;;;7904033;28;20204;-88
2023/03/22 08:36:12;;;;;;;9.27;5.50;;;11.70;99.90;;;;;;7926698;28;20201;-88
2023/03/22 08:39:58;;;;;;;8.57;5.47;;;11.70;99.90;;;;;;7911571;28;20180;-88
2023/03/22 08:43:44;;;;;;;8.57;5.20;;;11.70;99.90;;;;;;7914541;28;20212;-88
2023/03/22 08:47:30;;;;;;;8.67;4.77;;;11.70;99.90;;;;;;7914274;28;20185;-88
2023/03/22 08:51:21;;;;;;;7.80;5.13;;;11.80;99.90;;;;;;7914651;28;20201;-88
2023/03/22 08:55:07;;;;;;;9.70;4.73;;;11.90;99.90;;;;;;7904659;28;20200;-87
2023/03/22 08:58:53;;;;;;;7.67;4.93;;;12.10;99.90;;;;;;7899839;28;20196;-88
2023/03/22 09:02:39;;;;;;;9.27;4.87;;;12.30;99.90;;;;;;7919857;28;20211;-88
2023/03/22 09:06:25;;;;;;;6.17;4.00;;;12.40;99.90;;;;;;7958023;28;20192;-89
2023/03/22 09:10:11;;;;;;;7.60;4.20;;;12.50;99.90;;;;;;7907180;28;20238;-88
2023/03/22 09:14:00;;;;;;;7.30;4.53;;;12.60;99.90;;;;;;7932423;27;20206;-88
2023/03/22 09:17:45;;;;;;;5.93;2.97;;;12.60;99.90;;;;;;7936129;27;20750;-88
2023/03/22 09:21:34;;;;;;;4.87;3.10;;;12.70;99.90;;;;;;7931155;28;20212;-88
2023/03/22 09:25:20;;;;;;;4.17;2.67;;;12.70;99.90;;;;;;7895957;28;20213;-88
2023/03/22 09:29:06;;;;;;;4.60;2.47;;;12.80;99.90;;;;;;7903245;28;20183;-87
2023/03/22 09:32:51;;;;;;;4.70;2.47;;;12.90;99.90;;;;;;7929376;28;20287;-88
2023/03/22 09:36:37;;;;;;;5.67;2.40;;;12.90;99.90;;;;;;7922517;28;20211;-88
2023/03/22 09:40:30;;;;;;;3.97;1.90;;;13.00;99.90;;;;;;7931156;28;20190;-89
2023/03/22 09:44:23;;;;;;;4.30;1.70;;;13.00;99.90;;;;;;7935643;28;20228;-88
2023/03/22 09:48:41;;;;;;;5.43;1.60;;;13.00;99.90;;;;;;7938295;28;20183;-88
2023/03/22 09:52:29;;;;;;;5.33;2.10;;;13.10;99.90;;;;;;7811940;28;20221;-89
2023/03/22 09:56:23;;;;;;;3.77;1.97;;;13.20;99.90;;;;;;7800393;28;20218;-88
2023/03/22 10:00:15;;;;;;;4.33;1.50;;;13.20;99.90;;;;;;7808114;28;20356;-87
2023/03/22 10:04:14;;;;;;;3.87;2.07;;;13.20;99.90;;;;;;7790995;28;20211;-88
2023/03/22 10:08:09;;;;;;;2.93;1.40;;;13.20;99.90;;;;;;7784939;28;20222;-88
2023/03/22 10:12:08;;;;;;;2.47;1.20;;;13.40;99.90;;;;;;7798084;28;20210;-89
2023/03/22 10:16:00;;;;;;;3.83;1.30;;;13.50;99.90;;;;;;7798188;28;20245;-88
2023/03/22 10:19:57;;;;;;;1.90;1.23;;;13.70;99.90;;;;;;7799555;28;20187;-89
2023/03/22 10:23:59;;;;;;;5.10;2.40;;;13.80;99.90;;;;;;7794093;28;20692;-87
2023/03/22 10:27:47;;;;;;;3.13;1.20;;;14.00;99.20;;;;;;7848125;28;20543;-88
2023/03/22 10:31:33;;;;;;;4.90;1.50;;;14.10;99.60;;;;;;7914719;28;20200;-88
2023/03/22 10:35:19;;;;;;;2.77;1.30;;;14.10;97.70;;;;;;7898761;28;20247;-88
2023/03/22 10:39:30;;;;;;;2.40;1.20;;;14.20;97.00;;;;;;7897072;28;20181;-88
2023/03/22 10:43:32;;;;;;;3.10;1.10;;;14.30;97.20;;;;;;7900050;28;20256;-88
2023/03/22 10:47:28;;;;;;;2.43;1.17;;;14.50;96.90;;;;;;7910881;28;20189;-87
2023/03/22 10:51:28;;;;;;;2.13;1.53;;;14.60;97.10;;;;;;7926060;28;20212;-89
2023/03/22 10:55:15;;;;;;;2.30;1.30;;;14.70;94.30;;;;;;7926449;28;20206;-88
2023/03/22 10:59:01;;;;;;;1.70;1.20;;;14.60;94.40;;;;;;7902535;28;20533;-89
2023/03/22 11:02:52;;;;;;;2.63;1.20;;;14.60;94.90;;;;;;7897511;28;20184;-88
2023/03/22 11:06:52;;;;;;;2.97;1.33;;;14.70;95.00;;;;;;7920218;28;20758;-88
2023/03/22 11:10:38;;;;;;;3.53;0.90;;;14.60;94.40;;;;;;7896674;28;20208;-87
2023/03/22 11:14:43;;;;;;;5.90;0.97;;;14.60;95.10;;;;;;7893800;28;20215;-88
2023/03/22 11:18:31;;;;;;;2.47;0.80;;;14.50;94.20;;;;;;7906724;28;20537;-89
2023/03/22 11:22:30;;;;;;;1.17;0.90;;;14.50;95.70;;;;;;7916413;28;20580;-88
2023/03/22 11:26:28;;;;;;;1.40;1.10;;;14.60;96.70;;;;;;7889152;28;20674;-88
2023/03/22 11:30:21;;;;;;;2.83;1.10;;;14.60;96.20;;;;;;7913525;28;20208;-88
2023/03/22 11:34:16;;;;;;;1.40;1.10;;;14.80;96.70;;;;;;7887682;28;20659;-88
2023/03/22 11:38:02;;;;;;;3.03;1.10;;;14.90;96.70;;;;;;7895123;28;20271;-89
2023/03/22 11:41:48;;;;;;;1.70;1.00;;;15.10;94.00;;;;;;7891800;28;20176;-88
2023/03/22 11:45:36;;;;;;;1.17;0.73;;;15.10;93.20;;;;;;7918092;28;20210;-88
2023/03/22 11:49:26;;;;;;;2.53;1.30;;;15.20;94.00;;;;;;7904116;28;20185;-88
2023/03/22 11:53:21;;;;;;;2.97;1.07;;;15.30;94.50;;;;;;7910540;28;20283;-88
2023/03/22 11:57:14;;;;;;;2.40;1.10;;;15.40;92.50;;;;;;7917990;28;20188;-87
2023/03/22 12:01:01;;;;;;;1.67;0.97;;;15.40;93.20;;;;;;7884318;28;20331;-87
2023/03/22 12:04:51;;;;;;;1.83;0.90;;;15.50;92.70;;;;;;7899338;28;20223;-87
2023/03/22 12:08:57;;;;;;;3.50;1.47;;;15.60;92.70;;;;;;7886502;28;20550;-87
2023/03/22 12:12:53;;;;;;;1.43;0.93;;;15.70;92.70;;;;;;7903517;28;20196;-88
2023/03/22 12:17:25;;;;;;;1.40;1.13;;;15.80;90.90;;;;;;7913051;28;20207;-87
2023/03/22 12:21:11;;;;;;;2.70;1.00;;;15.80;90.40;;;;;;7900009;28;20192;-87
2023/03/22 12:24:58;;;;;;;2.87;1.10;;;15.80;91.30;;;;;;7891699;28;20205;-87
2023/03/22 12:28:51;;;;;;;8.50;2.70;;;15.90;93.30;;;;;;7882470;28;20603;-88
2023/03/22 12:32:42;;;;;;;3.60;2.63;;;15.90;95.60;;;;;;7909069;28;20213;-87
2023/03/22 12:36:41;;;;;;;4.18;2.63;;;15.90;93.90;;;;;;7910948;28;20208;-87
2023/03/22 12:40:33;;;;;;;4.40;2.72;;;16.00;93.20;;;;;;7922671;28;20242;-88
2023/03/22 12:44:39;;;;;;;4.38;2.60;;;16.00;92.50;;;;;;7872080;28;20225;-88
2023/03/22 12:48:27;;;;;;;3.70;2.38;;;16.10;91.90;;;;;;7891998;28;20215;-87
2023/03/22 12:52:22;;;;;;;2.33;1.63;;;16.20;92.30;;;;;;7896905;28;20232;-87
2023/03/22 12:56:15;;;;;;;1.75;0.95;;;16.30;93.30;;;;;;7901069;28;20196;-88
2023/03/22 13:00:12;;;;;;;1.30;0.80;;;16.40;87.70;;;;;;7909310;28;20203;-88
2023/03/22 13:03:58;;;;;;;0.88;0.80;;;16.50;88.20;;;;;;7890441;28;20195;-87
2023/03/22 13:07:46;;;;;;;0.77;0.70;;;16.50;84.10;;;;;;7887099;28;20174;-88
2023/03/22 13:11:32;;;;;;;3.20;0.80;;;16.50;83.40;;;;;;7917661;28;20204;-88
2023/03/22 13:15:33;;;;;;;1.73;1.00;;;16.40;83.90;;;;;;7897143;28;20197;-87
2023/03/22 13:19:28;;;;;;;2.75;1.00;;;16.40;84.40;;;;;;7887862;28;20188;-86
2023/03/22 13:23:25;;;;;;;5.05;0.90;;;16.50;82.60;;;;;;7875695;28;20187;-87
2023/03/22 13:27:13;;;;;;;2.08;1.00;;;16.60;82.10;;;;;;7899006;28;20215;-88
2023/03/22 13:31:00;;;;;;;1.20;1.10;;;16.60;80.80;;;;;;7872644;28;20274;-87
2023/03/22 13:34:50;;;;;;;2.30;0.90;;;16.60;81.40;;;;;;7884531;28;20227;-87
2023/03/22 13:38:41;;;;;;;3.15;1.85;;;16.70;77.70;;;;;;7889202;28;20196;-90
2023/03/22 13:42:40;;;;;;;2.78;1.00;;;16.70;78.00;;;;;;7889960;28;20184;-87
2023/03/22 13:46:42;;;;;;;2.35;1.10;;;16.80;77.40;;;;;;7906147;28;20298;-88
2023/03/22 13:50:31;;;;;;;1.73;1.20;;;16.70;75.20;;;;;;7893974;28;20818;-88
2023/03/22 13:54:23;;;;;;;1.60;0.90;;;16.70;76.50;;;;;;7901476;28;20251;-87
2023/03/22 13:58:34;;;;;;;2.33;1.27;;;16.70;77.40;;;;;;7882446;28;20185;-87
2023/03/22 14:02:29;;;;;;;1.73;1.10;;;16.70;76.20;;;;;;7882021;28;20188;-87
2023/03/22 14:06:22;;;;;;;1.23;1.08;;;16.60;75.10;;;;;;7900370;28;20233;-86
2023/03/22 14:10:20;;;;;;;3.43;0.93;;;16.70;77.40;;;;;;7895918;28;20246;-87
2023/03/22 14:14:14;;;;;;;1.50;1.13;;;16.60;76.20;;;;;;7897188;28;20206;-87
2023/03/22 14:18:03;;;;;;;2.40;1.40;;;16.60;77.10;;;;;;7904258;28;20613;-88
2023/03/22 14:21:53;;;;;;;2.10;1.20;;;16.60;76.20;;;;;;7900320;28;20185;-88
2023/03/22 14:25:41;;;;;;;6.17;1.27;;;16.60;76.60;;;;;;7931545;28;20205;-87
2023/03/22 14:29:43;;;;;;;7.07;4.90;;;16.50;77.00;;;;;;7891857;28;20192;-87
2023/03/22 14:33:30;;;;;;;5.82;3.25;;;16.50;78.20;;;;;;7887472;28;20720;-87
2023/03/22 14:37:17;;;;;;;3.72;1.40;;;16.50;77.70;;;;;;7897321;28;20176;-86
2023/03/22 14:41:05;;;;;;;2.35;1.33;;;16.50;77.20;;;;;;7902062;28;20176;-87
2023/03/22 14:44:55;;;;;;;2.80;1.40;;;16.50;78.50;;;;;;7884058;28;20224;-87
2023/03/22 14:48:47;;;;;;;4.28;1.35;;;16.60;78.80;;;;;;7867002;28;20173;-88
2023/03/22 14:52:35;;;;;;;5.03;1.50;;;16.60;78.70;;;;;;7892512;28;20200;-86
2023/03/22 14:56:28;;;;;;;5.82;1.25;;;16.60;79.40;;;;;;7907981;28;20326;-87
2023/03/22 15:00:18;;;;;;;1.90;1.63;;;16.60;78.70;;;;;;7913784;28;20195;-86
2023/03/22 15:04:07;;;;;;;3.20;1.30;;;16.50;78.60;;;;;;7896958;28;20621;-88
2023/03/22 15:08:04;;;;;;;2.17;1.40;;;16.50;79.10;;;;;;7903670;28;20181;-88
2023/03/22 15:11:56;;;;;;;8.02;5.63;;;16.60;79.30;;;;;;7895533;28;20204;-88
2023/03/22 15:15:43;;;;;;;40.15;23.95;;;16.70;77.40;;;;;;7886664;28;20204;-86
2023/03/22 15:19:36;;;;;;;20.50;12.88;;;16.80;76.80;;;;;;7892071;28;20191;-87
2023/03/22 15:23:35;;;;;;;6.70;3.17;;;16.90;76.40;;;;;;7882827;28;20300;-87
2023/03/22 15:27:23;;;;;;;8.73;1.98;;;17.00;76.60;;;;;;7876278;28;20183;-88
2023/03/22 15:31:39;;;;;;;5.00;1.58;;;17.10;77.20;;;;;;7884818;28;20201;-87
2023/03/22 15:35:25;;;;;;;2.53;1.50;;;17.20;76.70;;;;;;7887713;28;20251;-87
2023/03/22 15:39:36;;;;;;;2.10;1.20;;;17.20;76.70;;;;;;7884506;28;20666;-87
2023/03/22 15:43:36;;;;;;;1.35;1.00;;;17.20;74.50;;;;;;7885737;28;20216;-88
2023/03/22 15:47:23;;;;;;;4.45;2.97;;;17.20;74.80;;;;;;7891972;28;20181;-86
2023/03/22 15:51:18;;;;;;;4.78;1.30;;;17.10;75.00;;;;;;7886781;28;20654;-87
2023/03/22 15:55:13;;;;;;;9.27;2.00;;;17.10;76.50;;;;;;7899992;28;20212;-87
2023/03/22 15:59:02;;;;;;;2.55;1.88;;;17.00;76.80;;;;;;7888154;28;20177;-87
2023/03/22 16:03:00;;;;;;;4.13;2.03;;;17.10;77.40;;;;;;7900631;28;20266;-88
2023/03/22 16:06:46;;;;;;;5.80;1.35;;;17.00;76.30;;;;;;7891754;28;20180;-87
2023/03/22 16:10:34;;;;;;;3.17;2.70;;;16.90;75.50;;;;;;7917784;28;20320;-88
2023/03/22 16:14:20;;;;;;;2.53;1.70;;;16.90;75.50;;;;;;7896286;28;20218;-86
2023/03/22 16:18:13;;;;;;;3.53;2.67;;;16.80;74.60;;;;;;7893855;28;20180;-87
2023/03/22 16:21:59;;;;;;;7.65;2.95;;;16.80;74.50;;;;;;7887795;28;20180;-86
2023/03/22 16:25:47;;;;;;;6.00;2.70;;;16.70;75.00;;;;;;7910722;28;20262;-87
2023/03/22 16:29:33;;;;;;;2.63;2.40;;;16.70;75.00;;;;;;7934232;28;20189;-87
2023/03/22 16:33:19;;;;;;;5.68;3.47;;;16.60;75.70;;;;;;7898964;28;20212;-88
2023/03/22 16:37:25;;;;;;;6.35;3.30;;;16.60;75.80;;;;;;7927742;28;20276;-88
2023/03/22 16:41:26;;;;;;;5.35;3.50;;;16.60;76.10;;;;;;7891184;28;20211;-87
2023/03/22 16:45:25;;;;;;;4.15;1.92;;;16.50;77.50;;;;;;7903298;28;20246;-88
2023/03/22 16:49:10;;;;;;;3.28;1.50;;;16.40;78.70;;;;;;7914701;28;20188;-87
2023/03/22 16:52:56;;;;;;;3.35;1.27;;;16.30;79.30;;;;;;7907858;28;20250;-87
2023/03/22 16:56:42;;;;;;;6.50;1.80;;;16.30;80.10;;;;;;7916760;28;20301;-88
2023/03/22 17:00:29;;;;;;;5.68;2.25;;;16.30;80.10;;;;;;7910966;28;20199;-87
2023/03/22 17:04:15;;;;;;;8.35;2.00;;;16.10;80.60;;;;;;7897406;28;20205;-88
2023/03/22 17:08:01;;;;;;;5.13;1.50;;;16.00;81.20;;;;;;7898180;28;20172;-86
2023/03/22 17:11:47;;;;;;;3.10;1.52;;;15.90;81.50;;;;;;7913829;28;20212;-86
2023/03/22 17:15:35;;;;;;;5.95;1.30;;;15.70;81.30;;;;;;7897251;28;20209;-87
2023/03/22 17:19:21;;;;;;;1.90;1.25;;;15.60;81.60;;;;;;7895778;28;20707;-86
2023/03/22 17:23:09;;;;;;;5.72;1.70;;;15.60;82.50;;;;;;7888691;28;20525;-88
2023/03/22 17:26:55;;;;;;;7.38;1.45;;;15.60;83.50;;;;;;7894632;28;20193;-88
2023/03/22 17:30:40;;;;;;;2.63;1.58;;;15.60;81.50;;;;;;7894596;28;20257;-88
2023/03/22 17:34:27;;;;;;;2.65;1.30;;;15.40;80.70;;;;;;7901124;28;20205;-87
2023/03/22 17:38:12;;;;;;;6.88;1.25;;;15.40;80.90;;;;;;7894810;28;20181;-87
2023/03/22 17:41:58;;;;;;;3.00;1.50;;;15.40;81.10;;;;;;7896014;28;20184;-86
2023/03/22 17:45:44;;;;;;;4.03;1.70;;;15.30;80.10;;;;;;7897111;28;20213;-89
2023/03/22 17:49:31;;;;;;;2.20;1.70;;;15.30;83.80;;;;;;7886773;28;20191;-89
2023/03/22 17:53:18;;;;;;;3.42;2.08;;;15.20;85.40;;;;;;7893070;28;20231;-88
2023/03/22 17:57:04;;;;;;;11.95;7.80;;;15.20;84.70;;;;;;7921100;28;20176;-85
2023/03/22 18:00:50;;;;;;;16.17;7.20;;;15.10;83.10;;;;;;7887470;28;20216;-88
2023/03/22 18:04:35;;;;;;;8.30;5.28;;;15.20;84.10;;;;;;7895279;28;20213;-88
2023/03/22 18:08:21;;;;;;;6.38;3.03;;;15.20;83.50;;;;;;7888450;28;20258;-86
2023/03/22 18:12:07;;;;;;;2.13;1.65;;;15.20;83.50;;;;;;7910653;28;20736;-86
2023/03/22 18:15:52;;;;;;;5.07;2.15;;;15.00;80.50;;;;;;7881023;28;20205;-87
2023/03/22 18:19:38;;;;;;;2.08;1.40;;;14.90;79.70;;;;;;7892043;28;20188;-87
2023/03/22 18:23:24;;;;;;;2.67;2.15;;;14.90;77.90;;;;;;7904659;28;20219;-87
2023/03/22 18:27:09;;;;;;;3.15;1.50;;;14.90;77.60;;;;;;7894249;28;20606;-88
2023/03/22 18:30:56;;;;;;;2.90;1.53;;;14.90;77.40;;;;;;7901986;28;20220;-87
2023/03/22 18:34:41;;;;;;;1.80;1.50;;;14.90;77.80;;;;;;7889878;28;20204;-87
2023/03/22 18:38:27;;;;;;;3.33;1.60;;;14.90;77.80;;;;;;7896464;28;20245;-87
2023/03/22 18:42:12;;;;;;;3.10;1.73;;;14.90;78.00;;;;;;7895893;28;20176;-85
2023/03/22 18:45:58;;;;;;;2.75;1.80;;;14.80;78.40;;;;;;7894428;28;20201;-86
2023/03/22 18:49:47;;;;;;;4.00;1.90;;;14.70;78.50;;;;;;7890058;28;20751;-87
2023/03/22 18:53:34;;;;;;;2.00;1.60;;;14.70;79.10;;;;;;7914179;27;20292;-86
2023/03/22 18:57:19;;;;;;;2.50;1.77;;;14.60;79.00;;;;;;7891104;28;20177;-86
2023/03/22 19:01:05;;;;;;;2.40;1.60;;;14.60;79.50;;;;;;7891432;28;20180;-87
2023/03/22 19:04:52;;;;;;;5.47;2.57;;;14.50;80.00;;;;;;7889282;28;20709;-87
2023/03/22 19:08:38;;;;;;;4.22;1.58;;;14.50;80.20;;;;;;7888245;28;20176;-86
2023/03/22 19:12:25;;;;;;;5.43;1.80;;;14.50;80.60;;;;;;7892169;28;20291;-86
2023/03/22 19:16:14;;;;;;;3.50;1.67;;;14.40;80.50;;;;;;7882276;28;20662;-87
2023/03/22 19:20:00;;;;;;;2.13;1.40;;;14.40;80.80;;;;;;7890325;28;20222;-87
2023/03/22 19:23:45;;;;;;;3.97;1.60;;;14.40;80.80;;;;;;7905668;28;20193;-88
2023/03/22 19:27:31;;;;;;;2.17;1.33;;;14.30;81.00;;;;;;7897177;28;20177;-87
2023/03/22 19:31:17;;;;;;;1.73;1.47;;;14.30;81.40;;;;;;7902038;28;20204;-85
2023/03/22 19:35:03;;;;;;;4.60;1.80;;;14.30;81.70;;;;;;7896714;28;20677;-87
2023/03/22 19:38:49;;;;;;;3.23;2.03;;;14.20;82.40;;;;;;7891595;28;20251;-86
2023/03/22 19:42:44;;;;;;;3.17;2.00;;;14.20;82.80;;;;;;7933967;28;20184;-83
2023/03/22 19:46:29;;;;;;;3.17;1.70;;;14.10;83.30;;;;;;7918781;28;20207;-86
2023/03/22 19:50:16;;;;;;;3.87;1.90;;;14.00;83.80;;;;;;7902958;28;20184;-84
2023/03/22 19:54:01;;;;;;;2.30;1.73;;;14.00;84.40;;;;;;7894230;28;20204;-85
2023/03/22 19:57:47;;;;;;;2.60;1.90;;;13.90;84.90;;;;;;7903078;28;20177;-87